sensor_id;sensor_type;location;lat;lon;timestamp;P1;durP1;ratioP1;P2;durP2;ratioP2
56760;SDS011;42633;44.494;11.356;2023-03-01T04:03:31;29.35;;;18.17;;
56760;SDS011;42633;44.494;11.356;2023-03-01T05:08:44;30.40;;;19.50;;
56760;SDS011;42633;44.494;11.356;2023-03-01T13:45:04;23.20;;;15.13;;
56760;SDS011;42633;44.494;11.356;2023-03-01T13:48:44;25.50;;;17.00;;
56760;SDS011;42633;44.494;11.356;2023-03-01T14:06:06;22.45;;;15.38;;
56760;SDS011;42633;44.494;11.356;2023-03-01T14:11:21;23.02;;;15.57;;
56760;SDS011;42633;44.494;11.356;2023-03-01T14:19:35;18.45;;;13.88;;
56760;SDS011;42633;44.494;11.356;2023-03-01T14:23:34;21.85;;;14.43;;
56760;SDS011;42633;44.494;11.356;2023-03-01T14:27:34;25.38;;;15.07;;
56760;SDS011;42633;44.494;11.356;2023-03-01T14:30:48;20.90;;;14.73;;
56760;SDS011;42633;44.494;11.356;2023-03-01T14:34:21;18.80;;;13.75;;
56760;SDS011;42633;44.494;11.356;2023-03-01T14:37:34;22.45;;;14.52;;
56760;SDS011;42633;44.494;11.356;2023-03-01T14:40:40;19.58;;;13.55;;
56760;SDS011;42633;44.494;11.356;2023-03-01T14:43:49;21.13;;;13.95;;
56760;SDS011;42633;44.494;11.356;2023-03-01T14:46:56;18.95;;;13.30;;
56760;SDS011;42633;44.494;11.356;2023-03-01T14:50:08;18.40;;;13.57;;
56760;SDS011;42633;44.494;11.356;2023-03-01T14:53:29;18.45;;;12.75;;
56760;SDS011;42633;44.494;11.356;2023-03-01T15:00:42;24.08;;;14.60;;
56760;SDS011;42633;44.494;11.356;2023-03-01T15:04:55;19.33;;;13.57;;
56760;SDS011;42633;44.494;11.356;2023-03-01T15:11:52;19.20;;;14.40;;
56760;SDS011;42633;44.494;11.356;2023-03-01T15:15:33;24.10;;;15.20;;
56760;SDS011;42633;44.494;11.356;2023-03-01T15:18:56;23.35;;;16.33;;
56760;SDS011;42633;44.494;11.356;2023-03-01T15:26:04;31.88;;;19.45;;
56760;SDS011;42633;44.494;11.356;2023-03-01T15:29:17;21.63;;;16.05;;
56760;SDS011;42633;44.494;11.356;2023-03-01T15:40:32;26.25;;;17.20;;
56760;SDS011;42633;44.494;11.356;2023-03-01T15:44:27;22.77;;;16.58;;
56760;SDS011;42633;44.494;11.356;2023-03-01T15:48:36;26.15;;;17.02;;
56760;SDS011;42633;44.494;11.356;2023-03-01T15:52:42;22.05;;;14.77;;
56760;SDS011;42633;44.494;11.356;2023-03-01T15:56:44;24.77;;;17.02;;
56760;SDS011;42633;44.494;11.356;2023-03-01T15:59:58;18.58;;;13.90;;
56760;SDS011;42633;44.494;11.356;2023-03-01T16:03:43;19.73;;;14.48;;
56760;SDS011;42633;44.494;11.356;2023-03-01T16:07:26;20.15;;;14.02;;
56760;SDS011;42633;44.494;11.356;2023-03-01T16:11:22;18.83;;;13.77;;
56760;SDS011;42633;44.494;11.356;2023-03-01T16:14:52;20.35;;;14.48;;
56760;SDS011;42633;44.494;11.356;2023-03-01T16:18:09;19.00;;;12.98;;
56760;SDS011;42633;44.494;11.356;2023-03-01T16:21:39;19.42;;;14.15;;
56760;SDS011;42633;44.494;11.356;2023-03-01T16:24:57;19.25;;;13.95;;
56760;SDS011;42633;44.494;11.356;2023-03-01T16:28:04;19.63;;;13.63;;
56760;SDS011;42633;44.494;11.356;2023-03-01T16:57:51;15.85;;;11.25;;
56760;SDS011;42633;44.494;11.356;2023-03-01T17:11:02;14.30;;;11.40;;
56760;SDS011;42633;44.494;11.356;2023-03-01T17:14:10;14.68;;;11.57;;
56760;SDS011;42633;44.494;11.356;2023-03-01T17:17:15;16.55;;;12.48;;
56760;SDS011;42633;44.494;11.356;2023-03-01T17:25:03;15.90;;;11.70;;
56760;SDS011;42633;44.494;11.356;2023-03-01T17:38:49;20.40;;;15.38;;
56760;SDS011;42633;44.494;11.356;2023-03-01T17:42:01;17.00;;;13.20;;
56760;SDS011;42633;44.494;11.356;2023-03-01T17:54:49;21.13;;;14.13;;
56760;SDS011;42633;44.494;11.356;2023-03-01T17:58:14;19.27;;;14.38;;
56760;SDS011;42633;44.494;11.356;2023-03-01T18:06:08;16.95;;;13.23;;
56760;SDS011;42633;44.494;11.356;2023-03-01T18:09:27;22.88;;;15.80;;
56760;SDS011;42633;44.494;11.356;2023-03-01T18:12:32;22.27;;;15.48;;
56760;SDS011;42633;44.494;11.356;2023-03-01T18:15:47;19.45;;;15.13;;
56760;SDS011;42633;44.494;11.356;2023-03-01T18:19:00;36.83;;;17.88;;
56760;SDS011;42633;44.494;11.356;2023-03-01T18:23:16;24.45;;;16.95;;
56760;SDS011;42633;44.494;11.356;2023-03-01T18:26:47;23.35;;;16.52;;
56760;SDS011;42633;44.494;11.356;2023-03-01T19:13:49;22.77;;;16.77;;
56760;SDS011;42633;44.494;11.356;2023-03-01T19:53:18;22.65;;;17.42;;
56760;SDS011;42633;44.494;11.356;2023-03-01T20:06:20;21.05;;;15.93;;
